^^
Datos históricos de la estación: Murcia-Puente Tocinos
Diario Informe para Noviembre 30, 2019 Unidades:  Ambas    Ingés   Métrico
Diario Semanal Mensual Anual
  Máxima: Mínima: Promedio:
Temperatura: 71.4 °F /  21.9 °C 55.6 °F /  13.1 °C 61.5 °F /  16.4 °C
Punto de rocio: 53.2 °F /  11.8 °C 48.9 °F /  9.4 °C 51.1 °F /  10.6 °C
Humedad: 86% 50% 70%
Velocidad viento: 6.9mph /  11.1km/h - 3.5mph /  5.7km/h
Racha viento: 13mph /  20.9km/h - -
Viento- - SSO
Presión: 30.1 in /  1020.6 hPa 29.9 in /  1013.4 hPa -
Precipitación: 0 in /  0.0 mm    
 
 
Tabla de datos para Noviembre 30, 2019
Hora Temperatura Punto de rocio Presión Viento Velocidad viento Racha viento Humedad Intensidad lluvia(por hora) Nubes
00:04 59.4 °F /  15.2 °C 50.7 °F /  10.4 °C 30.1in /  1019.9hPa SSO 2.7mph /  4.4km/h 5mph /  8km/h 73% 0in /  0.0mm
00:09 59.4 °F /  15.2 °C 50.4 °F /  10.2 °C 30.1in /  1020.0hPa SSO 2.9mph /  4.7km/h 5mph /  8km/h 72.1% 0in /  0.0mm
00:14 59.5 °F /  15.3 °C 50.5 °F /  10.3 °C 30.1in /  1020.0hPa SSO 2.2mph /  3.6km/h 5mph /  8km/h 72% 0in /  0.0mm
00:19 59.5 °F /  15.3 °C 50.5 °F /  10.3 °C 30.1in /  1020.0hPa SSO 2mph /  3.2km/h 5mph /  8km/h 72% 0in /  0.0mm
00:24 59.5 °F /  15.3 °C 50.4 °F /  10.2 °C 30.1in /  1020.0hPa SSO 1.9mph /  3km/h 5mph /  8km/h 72% 0in /  0.0mm
00:29 59.4 °F /  15.2 °C 50.4 °F /  10.2 °C 30.1in /  1020.0hPa SSO 1.8mph /  2.9km/h   72% 0in /  0.0mm
00:34 59.2 °F /  15.1 °C 50.5 °F /  10.3 °C 30.1in /  1020.0hPa SSO 0.6mph /  0.9km/h   73% 0in /  0.0mm
00:39 59 °F /  15 °C 50.4 °F /  10.2 °C 30.1in /  1020.0hPa Calm     73% 0in /  0.0mm
00:44 58.8 °F /  14.9 °C 50.2 °F /  10.1 °C 30.1in /  1020.0hPa Calm     73% 0in /  0.0mm
00:49 58.6 °F /  14.8 °C 50.4 °F /  10.2 °C 30.1in /  1020.0hPa Calm     74% 0in /  0.0mm
00:54 58.5 °F /  14.7 °C 50.4 °F /  10.2 °C 30.1in /  1020.0hPa Calm     74% 0in /  0.0mm
00:59 58.5 °F /  14.7 °C 50.2 °F /  10.1 °C 30.1in /  1020.0hPa Calm     74% 0in /  0.0mm
01:04 58.3 °F /  14.6 °C 50 °F /  10 °C 30.1in /  1020.0hPa Calm     74% 0in /  0.0mm
01:09 58.1 °F /  14.5 °C 50 °F /  10 °C 30.1in /  1020.1hPa Calm     74.5% 0in /  0.0mm
01:14 57.9 °F /  14.4 °C 50 °F /  10 °C 30.1in /  1020.1hPa Calm     75% 0in /  0.0mm
01:19 57.9 °F /  14.4 °C 50 °F /  10 °C 30.1in /  1020.1hPa Calm   2.9mph /  4.7km/h 75% 0in /  0.0mm
01:24 57.9 °F /  14.4 °C 50 °F /  10 °C 30.1in /  1020.2hPa Sur 1mph /  1.6km/h 4.6mph /  7.4km/h 75% 0in /  0.0mm
01:29 57.9 °F /  14.4 °C 50 °F /  10 °C 30.1in /  1020.2hPa SSE 1.4mph /  2.2km/h 5.9mph /  9.5km/h 75% 0in /  0.0mm
01:34 57.9 °F /  14.4 °C 50 °F /  10 °C 30.1in /  1020.2hPa SSE 2.6mph /  4.2km/h 6mph /  9.7km/h 75% 0in /  0.0mm
01:39 57.7 °F /  14.3 °C 50 °F /  10 °C 30.1in /  1020.2hPa Sur 3.1mph /  5km/h 6mph /  9.7km/h 75% 0in /  0.0mm
01:44 57.7 °F /  14.3 °C 49.8 °F /  9.9 °C 30.1in /  1019.9hPa Sur 3.5mph /  5.6km/h 6.2mph /  10km/h 75% 0in /  0.0mm
01:49 57.7 °F /  14.3 °C 50 °F /  10 °C 30.1in /  1019.9hPa Sur 3.6mph /  5.8km/h 6mph /  9.7km/h 75% 0in /  0.0mm
01:54 57.7 °F /  14.3 °C 49.8 °F /  9.9 °C 30.1in /  1019.9hPa Sur 3.6mph /  5.8km/h 5.8mph /  9.3km/h 75% 0in /  0.0mm
01:59 57.7 °F /  14.3 °C 49.8 °F /  9.9 °C 30.1in /  1019.8hPa Sur 3.6mph /  5.8km/h 6mph /  9.7km/h 75% 0in /  0.0mm
02:04 57.7 °F /  14.3 °C 49.8 °F /  9.9 °C 30.1in /  1019.8hPa SSO 3.2mph /  5.2km/h 5.9mph /  9.5km/h 75% 0in /  0.0mm
02:09 57.7 °F /  14.3 °C 49.8 °F /  9.9 °C 30.1in /  1019.8hPa SSO 3.1mph /  5km/h 6mph /  9.7km/h 75% 0in /  0.0mm
02:14 57.7 °F /  14.3 °C 50 °F /  10 °C 30.1in /  1019.8hPa OSO 3.4mph /  5.5km/h 6mph /  9.7km/h 75% 0in /  0.0mm
02:19 57.7 °F /  14.3 °C 50 °F /  10 °C 30.1in /  1019.8hPa Oeste 3.6mph /  5.8km/h 5mph /  8km/h 75% 0in /  0.0mm
02:24 57.7 °F /  14.3 °C 49.8 °F /  9.9 °C 30.1in /  1019.9hPa Oeste 2.7mph /  4.4km/h 5mph /  8km/h 75% 0in /  0.0mm
02:29 57.6 °F /  14.2 °C 49.8 °F /  9.9 °C 30.1in /  1019.9hPa OSO 2.4mph /  3.9km/h 5mph /  8km/h 75% 0in /  0.0mm
02:34 57.6 °F /  14.2 °C 49.8 °F /  9.9 °C 30.1in /  1019.9hPa SSO 2.7mph /  4.4km/h 5.4mph /  8.7km/h 75.5% 0in /  0.0mm
02:39 57.6 °F /  14.2 °C 49.8 °F /  9.9 °C 30.1in /  1020.0hPa SO 2.9mph /  4.7km/h 6mph /  9.7km/h 75.5% 0in /  0.0mm
02:44 57.7 °F /  14.3 °C 49.8 °F /  9.9 °C 30.1in /  1020.0hPa OSO 2.5mph /  4.1km/h 5mph /  8km/h 75% 0in /  0.0mm
02:49 57.7 °F /  14.3 °C 49.8 °F /  9.9 °C 30.1in /  1020.0hPa OSO 2.4mph /  3.9km/h 3mph /  4.8km/h 75% 0in /  0.0mm
02:54 57.6 °F /  14.2 °C 49.8 °F /  9.9 °C 30.1in /  1020.0hPa OSO 0.7mph /  1.1km/h 1mph /  1.6km/h 75% 0in /  0.0mm
02:59 57.6 °F /  14.2 °C 49.6 °F /  9.8 °C 30.1in /  1020.0hPa Calm     75% 0in /  0.0mm
03:04 57.4 °F /  14.1 °C 49.6 °F /  9.8 °C 30.1in /  1020.0hPa Calm     75.1% 0in /  0.0mm
03:09 57.4 °F /  14.1 °C 49.8 °F /  9.9 °C 30.1in /  1020.0hPa Calm     76% 0in /  0.0mm
03:14 57 °F /  13.9 °C 49.6 °F /  9.8 °C 30.1in /  1020.0hPa Calm   5.2mph /  8.4km/h 76.2% 0in /  0.0mm
03:19 57 °F /  13.9 °C 49.8 °F /  9.9 °C 30.1in /  1020.0hPa Calm   5.9mph /  9.5km/h 76.9% 0in /  0.0mm
03:24 57 °F /  13.9 °C 49.6 °F /  9.8 °C 30.1in /  1020.1hPa SSO 2.2mph /  3.5km/h 7.4mph /  11.9km/h 76% 0in /  0.0mm
03:29 57.2 °F /  14 °C 49.8 °F /  9.9 °C 30.1in /  1020.1hPa SSO 3.1mph /  5km/h 7mph /  11.3km/h 76% 0in /  0.0mm
03:34 57.4 °F /  14.1 °C 49.8 °F /  9.9 °C 30.1in /  1020.1hPa SSO 4.2mph /  6.8km/h 8.1mph /  13km/h 76% 0in /  0.0mm
03:39 57.4 °F /  14.1 °C 49.8 °F /  9.9 °C 30.1in /  1020.1hPa SSO 4.7mph /  7.6km/h 8.1mph /  13km/h 75.8% 0in /  0.0mm
03:44 57.6 °F /  14.2 °C 49.6 °F /  9.8 °C 30.1in /  1020.0hPa SSO 4.7mph /  7.6km/h 8.1mph /  13km/h 75% 0in /  0.0mm
03:49 57.6 °F /  14.2 °C 49.6 °F /  9.8 °C 30.1in /  1020.0hPa SSO 4.7mph /  7.6km/h 8mph /  12.9km/h 75% 0in /  0.0mm
03:54 57.6 °F /  14.2 °C 49.6 °F /  9.8 °C 30.1in /  1020.0hPa SSO 4.7mph /  7.6km/h 8.1mph /  13km/h 75% 0in /  0.0mm
03:59 57.6 °F /  14.2 °C 49.6 °F /  9.8 °C 30.1in /  1020.0hPa SO 4.7mph /  7.6km/h 8.1mph /  13km/h 75% 0in /  0.0mm
04:04 57.6 °F /  14.2 °C 49.6 °F /  9.8 °C 30.1in /  1020.0hPa SSO 5.1mph /  8.2km/h 8mph /  12.9km/h 75% 0in /  0.0mm
04:09 57.6 °F /  14.2 °C 49.6 °F /  9.8 °C 30.1in /  1020.0hPa SSO 5.2mph /  8.4km/h 6.9mph /  11.1km/h 75% 0in /  0.0mm
04:14 57.6 °F /  14.2 °C 49.6 °F /  9.8 °C 30.1in /  1019.8hPa SSO 4.5mph /  7.3km/h 7mph /  11.3km/h 75% 0in /  0.0mm
04:19 57.7 °F /  14.3 °C 49.8 °F /  9.9 °C 30.1in /  1019.8hPa SSO 4.3mph /  6.9km/h 8.1mph /  13km/h 75% 0in /  0.0mm
04:24 57.7 °F /  14.3 °C 49.8 °F /  9.9 °C 30.1in /  1019.8hPa SSO 4.3mph /  6.9km/h 8mph /  12.9km/h 75% 0in /  0.0mm
04:29 57.7 °F /  14.3 °C 50 °F /  10 °C 30.1in /  1019.7hPa SSO 4.3mph /  6.9km/h 8.1mph /  13km/h 75% 0in /  0.0mm
04:34 57.9 °F /  14.4 °C 50 °F /  10 °C 30.1in /  1019.7hPa SSO 4.3mph /  6.9km/h 8mph /  12.9km/h 74.7% 0in /  0.0mm
04:39 58.1 °F /  14.5 °C 50 °F /  10 °C 30.1in /  1019.8hPa SO 4.3mph /  6.9km/h 9.2mph /  14.8km/h 74% 0in /  0.0mm
04:44 58.3 °F /  14.6 °C 50 °F /  10 °C 30.1in /  1019.8hPa SO 4.6mph /  7.4km/h 9mph /  14.5km/h 74% 0in /  0.0mm
04:49 58.3 °F /  14.6 °C 50 °F /  10 °C 30.1in /  1019.8hPa SO 4.7mph /  7.6km/h 8.1mph /  13km/h 74% 0in /  0.0mm
04:54 58.3 °F /  14.6 °C 50 °F /  10 °C 30.1in /  1019.8hPa SO 4.7mph /  7.6km/h 8.1mph /  13km/h 74% 0in /  0.0mm
04:59 58.3 °F /  14.6 °C 50 °F /  10 °C 30.1in /  1019.8hPa SO 4.7mph /  7.6km/h 7.4mph /  11.9km/h 74% 0in /  0.0mm
05:04 58.3 °F /  14.6 °C 50 °F /  10 °C 30.1in /  1019.8hPa SO 4.4mph /  7.1km/h 7.4mph /  11.9km/h 74% 0in /  0.0mm
05:09 58.3 °F /  14.6 °C 50 °F /  10 °C 30.1in /  1019.8hPa SSO 4.3mph /  6.9km/h 8.5mph /  13.7km/h 74% 0in /  0.0mm
05:14 58.3 °F /  14.6 °C 50 °F /  10 °C 30.1in /  1019.8hPa SSO 5.1mph /  8.2km/h 9mph /  14.5km/h 74% 0in /  0.0mm
05:19 58.3 °F /  14.6 °C 50 °F /  10 °C 30.1in /  1019.8hPa SSO 5.4mph /  8.7km/h 8mph /  12.9km/h 74% 0in /  0.0mm
05:24 58.1 °F /  14.5 °C 49.8 °F /  9.9 °C 30.1in /  1019.8hPa SO 4.9mph /  7.9km/h 7.4mph /  11.9km/h 74% 0in /  0.0mm
05:29 57.9 °F /  14.4 °C 49.6 °F /  9.8 °C 30.1in /  1019.8hPa SSO 4.7mph /  7.6km/h 8.5mph /  13.7km/h 74% 0in /  0.0mm
05:34 57.9 °F /  14.4 °C 49.6 °F /  9.8 °C 30.1in /  1019.8hPa SSO 5mph /  8.1km/h 9mph /  14.5km/h 74% 0in /  0.0mm
05:39 57.7 °F /  14.3 °C 49.8 °F /  9.9 °C 30.1in /  1019.8hPa SSO 5.2mph /  8.4km/h 8mph /  12.9km/h 74.7% 0in /  0.0mm
05:44 57.7 °F /  14.3 °C 49.8 °F /  9.9 °C 30.1in /  1019.7hPa SSO 4.5mph /  7.3km/h 8.5mph /  13.7km/h 75% 0in /  0.0mm
05:49 57.7 °F /  14.3 °C 49.8 °F /  9.9 °C 30.1in /  1019.7hPa SSO 4.3mph /  6.9km/h 9mph /  14.5km/h 75% 0in /  0.0mm
05:54 57.7 °F /  14.3 °C 50 °F /  10 °C 30.1in /  1019.7hPa SSO 4.3mph /  6.9km/h 8.1mph /  13km/h 75% 0in /  0.0mm
05:59 57.9 °F /  14.4 °C 50 °F /  10 °C 30.1in /  1019.7hPa SO 4.3mph /  6.9km/h 8mph /  12.9km/h 75% 0in /  0.0mm
06:04 57.9 °F /  14.4 °C 50 °F /  10 °C 30.1in /  1019.7hPa SO 3.4mph /  5.5km/h 6mph /  9.7km/h 75% 0in /  0.0mm
06:09 57.7 °F /  14.3 °C 49.6 °F /  9.8 °C 30.1in /  1019.7hPa SO 3.1mph /  5km/h 6mph /  9.7km/h 74.2% 0in /  0.0mm
06:14 57.6 °F /  14.2 °C 49.5 °F /  9.7 °C 30.1in /  1019.6hPa SO 2.6mph /  4.2km/h 5mph /  8km/h 74.3% 0in /  0.0mm
06:19 57.2 °F /  14 °C 49.5 °F /  9.7 °C 30.1in /  1019.6hPa SO 2.4mph /  3.9km/h 4mph /  6.4km/h 75% 0in /  0.0mm
06:24 56.8 °F /  13.8 °C 49.3 °F /  9.6 °C 30.1in /  1019.7hPa SO 2mph /  3.2km/h 3.6mph /  5.8km/h 75.6% 0in /  0.0mm
06:29 56.5 °F /  13.6 °C 49.1 °F /  9.5 °C 30.1in /  1019.7hPa SO 1.8mph /  2.9km/h 4mph /  6.4km/h 76.2% 0in /  0.0mm
06:34 56.1 °F /  13.4 °C 48.9 °F /  9.4 °C 30.1in /  1019.7hPa SO 1.8mph /  2.9km/h 3.5mph /  5.6km/h 77.1% 0in /  0.0mm
06:39 55.8 °F /  13.2 °C 49.1 °F /  9.5 °C 30.1in /  1019.7hPa SO 1.8mph /  2.9km/h 3mph /  4.8km/h 78.2% 0in /  0.0mm
06:44 55.6 °F /  13.1 °C 49.3 °F /  9.6 °C 30.1in /  1019.7hPa SO 0.5mph /  0.8km/h 4.7mph /  7.6km/h 79% 0in /  0.0mm
06:49 55.8 °F /  13.2 °C 49.6 °F /  9.8 °C 30.1in /  1019.7hPa Calm   5.8mph /  9.3km/h 79.8% 0in /  0.0mm
06:54 55.9 °F /  13.3 °C 49.6 °F /  9.8 °C 30.1in /  1019.7hPa SSO 2.2mph /  3.5km/h 6.9mph /  11.1km/h 79% 0in /  0.0mm
06:59 56.3 °F /  13.5 °C 49.6 °F /  9.8 °C 30.1in /  1019.7hPa SSO 3.1mph /  5km/h 7mph /  11.3km/h 78% 0in /  0.0mm
07:04 56.5 °F /  13.6 °C 49.6 °F /  9.8 °C 30.1in /  1019.7hPa SO 3.8mph /  6.1km/h 6mph /  9.7km/h 78% 0in /  0.0mm
07:09 56.5 °F /  13.6 °C 49.6 °F /  9.8 °C 30.1in /  1019.9hPa SSO 4mph /  6.5km/h 6.9mph /  11.1km/h 78% 0in /  0.0mm
07:14 56.7 °F /  13.7 °C 49.5 °F /  9.7 °C 30.1in /  1019.9hPa SSO 4mph /  6.5km/h 8.1mph /  13km/h 77.1% 0in /  0.0mm
07:19 56.7 °F /  13.7 °C 49.5 °F /  9.7 °C 30.1in /  1019.9hPa SSO 4mph /  6.5km/h 8mph /  12.9km/h 77% 0in /  0.0mm
07:24 56.7 °F /  13.7 °C 49.5 °F /  9.7 °C 30.1in /  1020.0hPa SSO 4.8mph /  7.8km/h 8.1mph /  13km/h 77% 0in /  0.0mm
07:29 56.5 °F /  13.6 °C 49.5 °F /  9.7 °C 30.1in /  1020.0hPa SO 5.2mph /  8.4km/h 8.1mph /  13km/h 77% 0in /  0.0mm
07:34 56.5 °F /  13.6 °C 49.5 °F /  9.7 °C 30.1in /  1020.0hPa SSO 4.8mph /  7.8km/h 8mph /  12.9km/h 77% 0in /  0.0mm
07:39 56.5 °F /  13.6 °C 49.5 °F /  9.7 °C 30.1in /  1020.2hPa SSO 4.7mph /  7.6km/h 7.4mph /  11.9km/h 77% 0in /  0.0mm
07:44 56.5 °F /  13.6 °C 49.5 °F /  9.7 °C 30.1in /  1020.2hPa SSO 5mph /  8.1km/h 8.1mph /  13km/h 77% 0in /  0.0mm
07:49 56.5 °F /  13.6 °C 49.5 °F /  9.7 °C 30.1in /  1020.2hPa SSO 5.2mph /  8.4km/h 8mph /  12.9km/h 77% 0in /  0.0mm
07:54 56.5 °F /  13.6 °C 49.5 °F /  9.7 °C 30.1in /  1020.4hPa SSO 5.2mph /  8.4km/h 7mph /  11.3km/h 77% 0in /  0.0mm
07:59 56.3 °F /  13.5 °C 49.5 °F /  9.7 °C 30.1in /  1020.4hPa SSO 5.2mph /  8.4km/h 7mph /  11.3km/h 77.7% 0in /  0.0mm
08:04 56.1 °F /  13.4 °C 49.5 °F /  9.7 °C 30.1in /  1020.4hPa SSO 4.5mph /  7.3km/h 6.9mph /  11.1km/h 78% 0in /  0.0mm
08:09 55.9 °F /  13.3 °C 49.3 °F /  9.6 °C 30.1in /  1020.4hPa SSO 4.3mph /  6.9km/h 7.4mph /  11.9km/h 78% 0in /  0.0mm
08:14 55.9 °F /  13.3 °C 49.3 °F /  9.6 °C 30.1in /  1020.4hPa SSO 5mph /  8km/h 7.4mph /  11.9km/h 78% 0in /  0.0mm
08:19 55.9 °F /  13.3 °C 49.3 °F /  9.6 °C 30.1in /  1020.4hPa SSO 5.2mph /  8.4km/h 8.1mph /  13km/h 78% 0in /  0.0mm
08:24 55.9 °F /  13.3 °C 49.3 °F /  9.6 °C 30.1in /  1020.6hPa SSO 5.3mph /  8.6km/h 9.2mph /  14.8km/h 78% 0in /  0.0mm
08:29 56.1 °F /  13.4 °C 49.5 °F /  9.7 °C 30.1in /  1020.6hPa SO 5.4mph /  8.7km/h 10.7mph /  17.2km/h 78% 0in /  0.0mm
08:34 56.3 °F /  13.5 °C 49.3 °F /  9.6 °C 30.1in /  1020.6hPa SSO 6mph /  9.6km/h 11mph /  17.7km/h 77.5% 0in /  0.0mm
08:39 56.5 °F /  13.6 °C 49.5 °F /  9.7 °C 30.1in /  1020.6hPa SSO 6.2mph /  10km/h 10.4mph /  16.7km/h 77% 0in /  0.0mm
08:44 56.7 °F /  13.7 °C 49.5 °F /  9.7 °C 30.1in /  1020.6hPa SO 6.7mph /  10.8km/h 10mph /  16.1km/h 77% 0in /  0.0mm
08:49 56.7 °F /  13.7 °C 49.5 °F /  9.7 °C 30.1in /  1020.6hPa SSO 6.9mph /  11.1km/h 11.5mph /  18.5km/h 76.8% 0in /  0.0mm
08:54 56.8 °F /  13.8 °C 49.3 °F /  9.6 °C 30.1in /  1020.6hPa SSO 6.4mph /  10.3km/h 12.5mph /  20.1km/h 76% 0in /  0.0mm
08:59 56.8 °F /  13.8 °C 49.5 °F /  9.7 °C 30.1in /  1020.5hPa SSO 6.2mph /  10km/h 13mph /  20.9km/h 76% 0in /  0.0mm
09:04 57 °F /  13.9 °C 49.5 °F /  9.7 °C 30.1in /  1020.5hPa SSO 6.7mph /  10.8km/h 12mph /  19.3km/h 75.9% 0in /  0.0mm
09:09 57.4 °F /  14.1 °C 49.5 °F /  9.7 °C 30.1in /  1020.5hPa SSO 6.9mph /  11.1km/h 10mph /  16.1km/h 75% 0in /  0.0mm
09:14 57.6 °F /  14.2 °C 49.6 °F /  9.8 °C 30.1in /  1020.4hPa SO 6.2mph /  9.9km/h 9.7mph /  15.6km/h 75% 0in /  0.0mm
09:19 57.7 °F /  14.3 °C 49.5 °F /  9.7 °C 30.1in /  1020.4hPa SSO 5.9mph /  9.5km/h 10mph /  16.1km/h 74% 0in /  0.0mm
09:24 57.9 °F /  14.4 °C 49.6 °F /  9.8 °C 30.1in /  1020.5hPa SSO 5.4mph /  8.7km/h 9mph /  14.5km/h 74% 0in /  0.0mm
09:29 58.1 °F /  14.5 °C 49.8 °F /  9.9 °C 30.1in /  1020.5hPa SSO 5.2mph /  8.4km/h 8.5mph /  13.7km/h 73.8% 0in /  0.0mm
09:34 58.3 °F /  14.6 °C 49.6 °F /  9.8 °C 30.1in /  1020.5hPa SSO 5.2mph /  8.4km/h 9.7mph /  15.6km/h 73% 0in /  0.0mm
09:39 58.5 °F /  14.7 °C 49.8 °F /  9.9 °C 30.1in /  1020.5hPa SSO 5.2mph /  8.4km/h 10mph /  16.1km/h 73% 0in /  0.0mm
09:44 58.6 °F /  14.8 °C 49.8 °F /  9.9 °C 30.1in /  1020.4hPa SSO 5.7mph /  9.1km/h 9.7mph /  15.6km/h 72.6% 0in /  0.0mm
09:49 58.8 °F /  14.9 °C 49.8 °F /  9.9 °C 30.1in /  1020.4hPa SSO 5.9mph /  9.5km/h 10mph /  16.1km/h 72.1% 0in /  0.0mm
09:54 59 °F /  15 °C 50 °F /  10 °C 30.1in /  1020.4hPa SO 5.5mph /  8.9km/h 9.7mph /  15.6km/h 72% 0in /  0.0mm
09:59 59.4 °F /  15.2 °C 50.2 °F /  10.1 °C 30.1in /  1020.3hPa SO 5.4mph /  8.7km/h 11.5mph /  18.5km/h 72% 0in /  0.0mm
10:04 59.5 °F /  15.3 °C 50.4 °F /  10.2 °C 30.1in /  1020.3hPa SSO 5.8mph /  9.3km/h 12mph /  19.3km/h 72% 0in /  0.0mm
10:09 59.7 °F /  15.4 °C 50.5 °F /  10.3 °C 30.1in /  1020.3hPa SSO 5.9mph /  9.5km/h 10.2mph /  16.4km/h 71.3% 0in /  0.0mm
10:14 60.1 °F /  15.6 °C 50.7 °F /  10.4 °C 30.1in /  1020.2hPa SO 5.5mph /  8.9km/h 10.4mph /  16.7km/h 71% 0in /  0.0mm
10:19 60.3 °F /  15.7 °C 50.9 °F /  10.5 °C 30.1in /  1020.2hPa SSO 5.4mph /  8.7km/h 10mph /  16.1km/h 71% 0in /  0.0mm
10:24 60.6 °F /  15.9 °C 51.1 °F /  10.6 °C 30.1in /  1020.4hPa SSO 4.9mph /  7.9km/h 9mph /  14.5km/h 70.6% 0in /  0.0mm
10:29 61 °F /  16.1 °C 50.9 °F /  10.5 °C 30.1in /  1020.4hPa SO 4.7mph /  7.6km/h 9mph /  14.5km/h 69.6% 0in /  0.0mm
10:34 61.3 °F /  16.3 °C 51.1 °F /  10.6 °C 30.1in /  1020.4hPa SSO 4.4mph /  7.1km/h 8.7mph /  14km/h 69.2% 0in /  0.0mm
10:39 61.5 °F /  16.4 °C 50.9 °F /  10.5 °C 30.1in /  1020.4hPa SO 4.3mph /  6.9km/h 9.2mph /  14.8km/h 68.1% 0in /  0.0mm
10:44 61.7 °F /  16.5 °C 51.1 °F /  10.6 °C 30.1in /  1020.4hPa SO 4.6mph /  7.4km/h 9mph /  14.5km/h 68% 0in /  0.0mm
10:49 62.2 °F /  16.8 °C 51.3 °F /  10.7 °C 30.1in /  1020.4hPa SSO 4.7mph /  7.6km/h 7mph /  11.3km/h 67.6% 0in /  0.0mm
10:54 62.6 °F /  17 °C 51.4 °F /  10.8 °C 30.1in /  1020.4hPa Sur 3.9mph /  6.3km/h 7.4mph /  11.9km/h 66.8% 0in /  0.0mm
10:59 63 °F /  17.2 °C 51.3 °F /  10.7 °C 30.1in /  1020.4hPa SSO 3.6mph /  5.8km/h 7mph /  11.3km/h 66% 0in /  0.0mm
11:04 63 °F /  17.2 °C 51.4 °F /  10.8 °C 30.1in /  1020.4hPa SSO 4.4mph /  7.1km/h 7mph /  11.3km/h 66% 0in /  0.0mm
11:09 63.1 °F /  17.3 °C 51.3 °F /  10.7 °C 30.1in /  1020.4hPa Sur 4.7mph /  7.6km/h 9.2mph /  14.8km/h 65.1% 0in /  0.0mm
11:14 63.3 °F /  17.4 °C 51.3 °F /  10.7 °C 30.1in /  1020.3hPa SSO 4.7mph /  7.6km/h 9mph /  14.5km/h 65% 0in /  0.0mm
11:19 63.7 °F /  17.6 °C 51.4 °F /  10.8 °C 30.1in /  1020.3hPa Sur 4.7mph /  7.6km/h 8.1mph /  13km/h 64.3% 0in /  0.0mm
11:24 63.9 °F /  17.7 °C 51.3 °F /  10.7 °C 30.1in /  1020.3hPa SO 4.7mph /  7.6km/h 8.1mph /  13km/h 64% 0in /  0.0mm
11:29 63.9 °F /  17.7 °C 51.3 °F /  10.7 °C 30.1in /  1020.2hPa SO 4.7mph /  7.6km/h 8.5mph /  13.7km/h 63.5% 0in /  0.0mm
11:34 64 °F /  17.8 °C 50.9 °F /  10.5 °C 30.1in /  1020.2hPa OSO 4.4mph /  7.1km/h 9mph /  14.5km/h 62.4% 0in /  0.0mm
11:39 64 °F /  17.8 °C 50.9 °F /  10.5 °C 30.1in /  1020.2hPa OSO 4.3mph /  6.9km/h 8.5mph /  13.7km/h 62.3% 0in /  0.0mm
11:44 64 °F /  17.8 °C 51.1 °F /  10.6 °C 30.1in /  1020.1hPa SSO 4.3mph /  6.9km/h 9mph /  14.5km/h 62.5% 0in /  0.0mm
11:49 64.2 °F /  17.9 °C 51.1 °F /  10.6 °C 30.1in /  1020.1hPa SO 4.3mph /  6.9km/h 9.2mph /  14.8km/h 62.1% 0in /  0.0mm
11:54 64.8 °F /  18.2 °C 51.4 °F /  10.8 °C 30.1in /  1020.1hPa SO 4.3mph /  6.9km/h 9mph /  14.5km/h 62% 0in /  0.0mm
11:59 64.9 °F /  18.3 °C 51.3 °F /  10.7 °C 30.1in /  1019.9hPa OSO 4.3mph /  6.9km/h 6.9mph /  11.1km/h 61.1% 0in /  0.0mm
12:04 64.9 °F /  18.3 °C 51.3 °F /  10.7 °C 30.1in /  1019.9hPa SO 4.1mph /  6.6km/h 7.4mph /  11.9km/h 61% 0in /  0.0mm
12:09 64.9 °F /  18.3 °C 51.3 °F /  10.7 °C 30.1in /  1019.9hPa Oeste 4mph /  6.5km/h 9.2mph /  14.8km/h 61% 0in /  0.0mm
12:14 64.9 °F /  18.3 °C 51.1 °F /  10.6 °C 30.1in /  1019.5hPa OSO 4.2mph /  6.8km/h 9mph /  14.5km/h 60.9% 0in /  0.0mm
12:19 65.1 °F /  18.4 °C 51.3 °F /  10.7 °C 30.1in /  1019.5hPa SO 4.3mph /  6.9km/h 8mph /  12.9km/h 61% 0in /  0.0mm
12:24 65.3 °F /  18.5 °C 51.4 °F /  10.8 °C 30.1in /  1019.5hPa SSO 4.1mph /  6.6km/h 6.2mph /  10km/h 60.5% 0in /  0.0mm
12:29 65.8 °F /  18.8 °C 51.1 °F /  10.6 °C 30.1in /  1019.1hPa SO 4mph /  6.5km/h 9.2mph /  14.8km/h 59.2% 0in /  0.0mm
12:34 65.8 °F /  18.8 °C 51.1 °F /  10.6 °C 30.1in /  1019.1hPa SO 3.7mph /  6km/h 9.2mph /  14.8km/h 59% 0in /  0.0mm
12:39 66 °F /  18.9 °C 51.3 °F /  10.7 °C 30.1in /  1019.1hPa OSO 3.6mph /  5.8km/h 9mph /  14.5km/h 59.1% 0in /  0.0mm
12:44 66 °F /  18.9 °C 51.3 °F /  10.7 °C 30.1in /  1018.8hPa Oeste 3.9mph /  6.2km/h 8.1mph /  13km/h 58.8% 0in /  0.0mm
12:49 66 °F /  18.9 °C 51.3 °F /  10.7 °C 30.1in /  1018.8hPa Oeste 4mph /  6.5km/h 7mph /  11.3km/h 58.9% 0in /  0.0mm
12:54 66 °F /  18.9 °C 51.4 °F /  10.8 °C 30.1in /  1018.8hPa SSO 3.7mph /  6km/h 7mph /  11.3km/h 59% 0in /  0.0mm
12:59 66.6 °F /  19.2 °C 51.3 °F /  10.7 °C 30.1in /  1018.4hPa Sur 3.6mph /  5.8km/h 7mph /  11.3km/h 58.1% 0in /  0.0mm
13:04 66.7 °F /  19.3 °C 51.4 °F /  10.8 °C 30.1in /  1018.4hPa Oeste 3.6mph /  5.8km/h 8.1mph /  13km/h 57.9% 0in /  0.0mm
13:09 66.7 °F /  19.3 °C 51.1 °F /  10.6 °C 30.1in /  1018.4hPa ONO 3.6mph /  5.8km/h 8mph /  12.9km/h 57.3% 0in /  0.0mm
13:14 66.7 °F /  19.3 °C 51.4 °F /  10.8 °C 30.1in /  1018.1hPa Oeste 3.2mph /  5.2km/h 7mph /  11.3km/h 57.9% 0in /  0.0mm
13:19 66.9 °F /  19.4 °C 51.4 °F /  10.8 °C 30.1in /  1018.1hPa Oeste 3.1mph /  5km/h 5mph /  8km/h 57.2% 0in /  0.0mm
13:24 67.3 °F /  19.6 °C 51.6 °F /  10.9 °C 30.1in /  1018.1hPa Oeste 2.3mph /  3.7km/h 6.9mph /  11.1km/h 57% 0in /  0.0mm
13:29 67.8 °F /  19.9 °C 51.4 °F /  10.8 °C 30.1in /  1017.7hPa Sur 2mph /  3.2km/h 7mph /  11.3km/h 56.1% 0in /  0.0mm
13:34 68 °F /  20 °C 51.3 °F /  10.7 °C 30.1in /  1017.7hPa Este 2.8mph /  4.5km/h 7mph /  11.3km/h 55.1% 0in /  0.0mm
13:39 68.2 °F /  20.1 °C 51.4 °F /  10.8 °C 30.1in /  1017.7hPa Oeste 3.1mph /  5km/h 5.8mph /  9.3km/h 55% 0in /  0.0mm
13:44 68.4 °F /  20.2 °C 51.6 °F /  10.9 °C 30.1in /  1017.5hPa OSO 2.3mph /  3.7km/h 6.2mph /  10km/h 55% 0in /  0.0mm
13:49 68.4 °F /  20.2 °C 51.6 °F /  10.9 °C 30.1in /  1017.5hPa SE 2mph /  3.2km/h 6mph /  9.7km/h 55% 0in /  0.0mm
13:54 68.7 °F /  20.4 °C 51.8 °F /  11 °C 30.1in /  1017.5hPa ESE 2.3mph /  3.7km/h 5mph /  8km/h 54.8% 0in /  0.0mm
13:59 69.1 °F /  20.6 °C 51.4 °F /  10.8 °C 30in /  1017.0hPa SO 2.4mph /  3.9km/h 8.1mph /  13km/h 53.5% 0in /  0.0mm
14:04 68.9 °F /  20.5 °C 51.6 °F /  10.9 °C 30in /  1017.0hPa SSO 2.8mph /  4.5km/h 8mph /  12.9km/h 54% 0in /  0.0mm
14:09 69.1 °F /  20.6 °C 51.6 °F /  10.9 °C 30in /  1017.0hPa SSO 2.9mph /  4.7km/h 6mph /  9.7km/h 54% 0in /  0.0mm
14:14 69.3 °F /  20.7 °C 51.8 °F /  11 °C 30in /  1016.7hPa SO 2.9mph /  4.7km/h 6mph /  9.7km/h 54% 0in /  0.0mm
14:19 69.4 °F /  20.8 °C 51.6 °F /  10.9 °C 30in /  1016.7hPa OSO 2.9mph /  4.7km/h 5.9mph /  9.5km/h 53.2% 0in /  0.0mm
14:24 69.6 °F /  20.9 °C 51.6 °F /  10.9 °C 30in /  1016.7hPa SO 2.5mph /  4.1km/h 6.9mph /  11.1km/h 52.9% 0in /  0.0mm
14:29 69.6 °F /  20.9 °C 51.8 °F /  11 °C 30in /  1016.6hPa ONO 2.4mph /  3.9km/h 7mph /  11.3km/h 53% 0in /  0.0mm
14:34 70 °F /  21.1 °C 51.8 °F /  11 °C 30in /  1016.6hPa Oeste 2.4mph /  3.9km/h 5.9mph /  9.5km/h 52.6% 0in /  0.0mm
14:39 70 °F /  21.1 °C 51.4 °F /  10.8 °C 30in /  1016.6hPa OSO 2.4mph /  3.9km/h 6mph /  9.7km/h 52% 0in /  0.0mm
14:44 70 °F /  21.1 °C 51.4 °F /  10.8 °C 30in /  1016.3hPa OSO 2.9mph /  4.7km/h 6.9mph /  11.1km/h 52% 0in /  0.0mm
14:49 70 °F /  21.1 °C 51.4 °F /  10.8 °C 30in /  1016.3hPa SO 3.1mph /  5km/h 7mph /  11.3km/h 52% 0in /  0.0mm
14:54 70.2 °F /  21.2 °C 51.8 °F /  11 °C 30in /  1016.3hPa SO 3mph /  4.8km/h 6.9mph /  11.1km/h 52% 0in /  0.0mm
14:59 70.5 °F /  21.4 °C 51.8 °F /  11 °C 30in /  1016.0hPa SSO 2.9mph /  4.7km/h 7mph /  11.3km/h 51.7% 0in /  0.0mm
15:04 70.5 °F /  21.4 °C 51.4 °F /  10.8 °C 30in /  1016.0hPa Sur 2.9mph /  4.7km/h 6mph /  9.7km/h 51% 0in /  0.0mm
15:09 70.5 °F /  21.4 °C 51.6 °F /  10.9 °C 30in /  1016.0hPa SSO 2.9mph /  4.7km/h 6mph /  9.7km/h 51% 0in /  0.0mm
15:14 70.9 °F /  21.6 °C 51.8 °F /  11 °C 30in /  1015.7hPa Oeste 2.5mph /  4.1km/h 6mph /  9.7km/h 51% 0in /  0.0mm
15:19 70.9 °F /  21.6 °C 51.8 °F /  11 °C 30in /  1015.7hPa SSO 2.4mph /  3.9km/h 5mph /  8km/h 51% 0in /  0.0mm
15:24 71.1 °F /  21.7 °C 52 °F /  11.1 °C 30in /  1015.7hPa Este 2.1mph /  3.4km/h 5mph /  8km/h 51% 0in /  0.0mm
15:29 71.2 °F /  21.8 °C 52.2 °F /  11.2 °C 30in /  1015.5hPa ENE 2mph /  3.2km/h 5mph /  8km/h 51% 0in /  0.0mm
15:34 71.2 °F /  21.8 °C 51.8 °F /  11 °C 30in /  1015.5hPa NO 1.9mph /  3km/h 4mph /  6.4km/h 50.3% 0in /  0.0mm
15:39 71.2 °F /  21.8 °C 51.6 °F /  10.9 °C 30in /  1015.5hPa NNO 1.8mph /  2.9km/h 5.9mph /  9.5km/h 50% 0in /  0.0mm
15:44 71.2 °F /  21.8 °C 51.6 °F /  10.9 °C 30in /  1015.4hPa NO 2.6mph /  4.2km/h 6mph /  9.7km/h 50.2% 0in /  0.0mm
15:49 71.2 °F /  21.8 °C 52 °F /  11.1 °C 30in /  1015.4hPa Oeste 2.9mph /  4.7km/h 5mph /  8km/h 50.7% 0in /  0.0mm
15:54 71.2 °F /  21.8 °C 51.6 °F /  10.9 °C 30in /  1015.4hPa ONO 2.1mph /  3.4km/h 4.7mph /  7.6km/h 50% 0in /  0.0mm
15:59 71.2 °F /  21.8 °C 51.8 °F /  11 °C 30in /  1015.3hPa SO 1.8mph /  2.9km/h 5.2mph /  8.4km/h 50.4% 0in /  0.0mm
16:04 71.4 °F /  21.9 °C 52.3 °F /  11.3 °C 30in /  1015.3hPa OSO 2.6mph /  4.2km/h 5mph /  8km/h 51% 0in /  0.0mm
16:09 71.4 °F /  21.9 °C 52.3 °F /  11.3 °C 30in /  1015.3hPa NNE 2.9mph /  4.7km/h 5.9mph /  9.5km/h 51% 0in /  0.0mm
16:14 71.1 °F /  21.7 °C 52.5 °F /  11.4 °C 30in /  1015.0hPa NE 2.9mph /  4.7km/h 6mph /  9.7km/h 51.9% 0in /  0.0mm
16:19 70.9 °F /  21.6 °C 52.3 °F /  11.3 °C 30in /  1015.0hPa NE 2.9mph /  4.7km/h 6mph /  9.7km/h 52% 0in /  0.0mm
16:24 70.9 °F /  21.6 °C 52.3 °F /  11.3 °C 30in /  1015.0hPa NE 3.4mph /  5.4km/h 6mph /  9.7km/h 52% 0in /  0.0mm
16:29 70.7 °F /  21.5 °C 52.5 °F /  11.4 °C 30in /  1014.9hPa NE 3.6mph /  5.8km/h 6.2mph /  10km/h 52.7% 0in /  0.0mm
16:34 70.5 °F /  21.4 °C 52.5 °F /  11.4 °C 30in /  1014.9hPa NNE 3.6mph /  5.8km/h 6.2mph /  10km/h 53% 0in /  0.0mm
16:39 70.3 °F /  21.3 °C 52.5 °F /  11.4 °C 30in /  1014.9hPa NNE 3.6mph /  5.8km/h 6mph /  9.7km/h 53% 0in /  0.0mm
16:44 70.3 °F /  21.3 °C 52.3 °F /  11.3 °C 30in /  1014.7hPa NE 3.9mph /  6.2km/h 6.2mph /  10km/h 53% 0in /  0.0mm
16:49 70.3 °F /  21.3 °C 52.7 °F /  11.5 °C 30in /  1014.7hPa Este 4mph /  6.5km/h 6mph /  9.7km/h 53.8% 0in /  0.0mm
16:54 70.2 °F /  21.2 °C 52.9 °F /  11.6 °C 30in /  1014.7hPa ESE 3.7mph /  6km/h 7.4mph /  11.9km/h 54.2% 0in /  0.0mm
16:59 69.8 °F /  21 °C 53.1 °F /  11.7 °C 30in /  1014.6hPa ESE 3.6mph /  5.8km/h 11.8mph /  19km/h 55.1% 0in /  0.0mm
17:04 69.4 °F /  20.8 °C 53.1 °F /  11.7 °C 30in /  1014.6hPa ESE 5.3mph /  8.6km/h 12mph /  19.3km/h 56% 0in /  0.0mm
17:09 69.1 °F /  20.6 °C 53.2 °F /  11.8 °C 30in /  1014.6hPa ESE 5.9mph /  9.5km/h 9mph /  14.5km/h 56.9% 0in /  0.0mm
17:14 68.7 °F /  20.4 °C 53.1 °F /  11.7 °C 30in /  1014.4hPa ESE 6.1mph /  9.8km/h 9mph /  14.5km/h 57.5% 0in /  0.0mm
17:19 68.5 °F /  20.3 °C 53.1 °F /  11.7 °C 30in /  1014.4hPa ESE 6.2mph /  10km/h 8.5mph /  13.7km/h 58% 0in /  0.0mm
17:24 68.2 °F /  20.1 °C 53.2 °F /  11.8 °C 30in /  1014.4hPa ESE 5.5mph /  8.9km/h 9mph /  14.5km/h 58.9% 0in /  0.0mm
17:29 67.8 °F /  19.9 °C 53.1 °F /  11.7 °C 30in /  1014.4hPa SE 5.2mph /  8.4km/h 8.1mph /  13km/h 59% 0in /  0.0mm
17:34 67.6 °F /  19.8 °C 53.1 °F /  11.7 °C 30in /  1014.4hPa ESE 4.8mph /  7.8km/h 8mph /  12.9km/h 59.5% 0in /  0.0mm
17:39 67.5 °F /  19.7 °C 53.1 °F /  11.7 °C 30in /  1014.4hPa SE 4.7mph /  7.6km/h 6.9mph /  11.1km/h 60% 0in /  0.0mm
17:44 67.1 °F /  19.5 °C 52.7 °F /  11.5 °C 30in /  1014.4hPa SE 4.4mph /  7.1km/h 7mph /  11.3km/h 60% 0in /  0.0mm
17:49 66.7 °F /  19.3 °C 52.9 °F /  11.6 °C 30in /  1014.4hPa ESE 4.3mph /  6.9km/h 6.9mph /  11.1km/h 60.8% 0in /  0.0mm
17:54 66.6 °F /  19.2 °C 52.7 °F /  11.5 °C 30in /  1014.4hPa ESE 4.3mph /  6.9km/h 7.4mph /  11.9km/h 61% 0in /  0.0mm
17:59 66.2 °F /  19 °C 52.5 °F /  11.4 °C 30in /  1014.2hPa ESE 4.3mph /  6.9km/h 8.5mph /  13.7km/h 61.6% 0in /  0.0mm
18:04 65.8 °F /  18.8 °C 52.5 °F /  11.4 °C 30in /  1014.2hPa ESE 5mph /  8km/h 9mph /  14.5km/h 62.2% 0in /  0.0mm
18:09 65.5 °F /  18.6 °C 52.5 °F /  11.4 °C 30in /  1014.2hPa ESE 5.2mph /  8.4km/h 9.2mph /  14.8km/h 63% 0in /  0.0mm
18:14 65.1 °F /  18.4 °C 52.5 °F /  11.4 °C 30in /  1014.2hPa ESE 5.2mph /  8.4km/h 9mph /  14.5km/h 63.5% 0in /  0.0mm
18:19 64.9 °F /  18.3 °C 52.5 °F /  11.4 °C 30in /  1014.2hPa ESE 5.2mph /  8.4km/h 9.2mph /  14.8km/h 64% 0in /  0.0mm
18:24 64.8 °F /  18.2 °C 52.3 °F /  11.3 °C 30in /  1014.2hPa ESE 4.8mph /  7.8km/h 9.2mph /  14.8km/h 64.1% 0in /  0.0mm
18:29 64.6 °F /  18.1 °C 52.5 °F /  11.4 °C 30in /  1014.2hPa ESE 4.7mph /  7.6km/h 7mph /  11.3km/h 65% 0in /  0.0mm
18:34 64.6 °F /  18.1 °C 52.5 °F /  11.4 °C 30in /  1014.2hPa SE 4.4mph /  7.1km/h 6.9mph /  11.1km/h 65% 0in /  0.0mm
18:39 64.4 °F /  18 °C 52.3 °F /  11.3 °C 30in /  1014.3hPa ESE 4.3mph /  6.9km/h 7mph /  11.3km/h 65% 0in /  0.0mm
18:44 64.2 °F /  17.9 °C 52.3 °F /  11.3 °C 30in /  1014.3hPa ESE 3.3mph /  5.3km/h 5mph /  8km/h 65.2% 0in /  0.0mm
18:49 64 °F /  17.8 °C 52.5 °F /  11.4 °C 30in /  1014.3hPa ESE 2.9mph /  4.7km/h 3.6mph /  5.8km/h 65.9% 0in /  0.0mm
18:54 64 °F /  17.8 °C 52.3 °F /  11.3 °C 30in /  1014.3hPa SE 2.2mph /  3.6km/h 4.6mph /  7.4km/h 66% 0in /  0.0mm
18:59 63.9 °F /  17.7 °C 52.3 °F /  11.3 °C 30in /  1014.2hPa Sur 2mph /  3.2km/h 5mph /  8km/h 66% 0in /  0.0mm
19:04 63.9 °F /  17.7 °C 52.5 °F /  11.4 °C 30in /  1014.2hPa SSO 1.9mph /  3km/h 3.6mph /  5.8km/h 66.8% 0in /  0.0mm
19:09 63.5 °F /  17.5 °C 52.3 °F /  11.3 °C 30in /  1014.3hPa North 1.8mph /  2.9km/h 4mph /  6.4km/h 67% 0in /  0.0mm
19:14 63.1 °F /  17.3 °C 52.3 °F /  11.3 °C 30in /  1014.3hPa North 1.8mph /  2.9km/h 3mph /  4.8km/h 68% 0in /  0.0mm
19:19 63 °F /  17.2 °C 52.2 °F /  11.2 °C 30in /  1014.3hPa North 1.8mph /  2.9km/h 2mph /  3.2km/h 68% 0in /  0.0mm
19:24 62.8 °F /  17.1 °C 52.3 °F /  11.3 °C 30in /  1014.3hPa North 0.5mph /  0.8km/h 2.9mph /  4.7km/h 68.6% 0in /  0.0mm
19:29 62.8 °F /  17.1 °C 52.5 °F /  11.4 °C 30in /  1014.2hPa Calm   3.1mph /  5km/h 69% 0in /  0.0mm
19:34 62.6 °F /  17 °C 52.3 °F /  11.3 °C 30in /  1014.2hPa North 1mph /  1.6km/h 3.5mph /  5.6km/h 69% 0in /  0.0mm
19:39 62.6 °F /  17 °C 52.2 °F /  11.2 °C 30in /  1014.3hPa North 1.4mph /  2.2km/h 3mph /  4.8km/h 69% 0in /  0.0mm
19:44 62.2 °F /  16.8 °C 52.3 °F /  11.3 °C 30in /  1014.3hPa North 0.4mph /  0.7km/h   69.8% 0in /  0.0mm
19:49 62.1 °F /  16.7 °C 52.2 °F /  11.2 °C 30in /  1014.3hPa Calm   2mph /  3.2km/h 70% 0in /  0.0mm
19:54 61.9 °F /  16.6 °C 52.3 °F /  11.3 °C 30in /  1014.4hPa Calm   4.6mph /  7.4km/h 70.7% 0in /  0.0mm
19:59 61.5 °F /  16.4 °C 52.3 °F /  11.3 °C 30in /  1014.4hPa Calm   5mph /  8km/h 71.8% 0in /  0.0mm
20:04 61.5 °F /  16.4 °C 52.3 °F /  11.3 °C 30in /  1014.4hPa SSE 1.3mph /  2.1km/h 4.6mph /  7.4km/h 72% 0in /  0.0mm
20:09 61.3 °F /  16.3 °C 52.3 °F /  11.3 °C 30in /  1014.5hPa SSE 1.8mph /  2.9km/h 5.2mph /  8.4km/h 72.3% 0in /  0.0mm
20:14 61.3 °F /  16.3 °C 52.5 °F /  11.4 °C 30in /  1014.5hPa Sur 2.7mph /  4.4km/h 6.2mph /  10km/h 73% 0in /  0.0mm
20:19 61.2 °F /  16.2 °C 52.5 °F /  11.4 °C 30in /  1014.5hPa Sur 3.1mph /  5km/h 6.9mph /  11.1km/h 73.8% 0in /  0.0mm
20:24 60.8 °F /  16 °C 52.5 °F /  11.4 °C 30in /  1014.5hPa SSE 3.7mph /  6km/h 7mph /  11.3km/h 74.1% 0in /  0.0mm
20:29 60.6 °F /  15.9 °C 52.5 °F /  11.4 °C 30in /  1014.4hPa SSE 4mph /  6.5km/h 7mph /  11.3km/h 75% 0in /  0.0mm
20:34 60.6 °F /  15.9 °C 52.5 °F /  11.4 °C 30in /  1014.4hPa Sur 4.2mph /  6.8km/h 7mph /  11.3km/h 75% 0in /  0.0mm
20:39 60.4 °F /  15.8 °C 52.5 °F /  11.4 °C 30in /  1014.5hPa Sur 4.3mph /  6.9km/h 5mph /  8km/h 75.2% 0in /  0.0mm
20:44 60.3 °F /  15.7 °C 52.7 °F /  11.5 °C 30in /  1014.5hPa Sur 3.3mph /  5.3km/h 5mph /  8km/h 76% 0in /  0.0mm
20:49 60.3 °F /  15.7 °C 52.7 °F /  11.5 °C 30in /  1014.5hPa SSO 2.9mph /  4.7km/h 5mph /  8km/h 76% 0in /  0.0mm
20:54 60.1 °F /  15.6 °C 52.7 °F /  11.5 °C 30in /  1014.5hPa SO 2.9mph /  4.7km/h 5mph /  8km/h 76.7% 0in /  0.0mm
20:59 60.1 °F /  15.6 °C 52.9 °F /  11.6 °C 30in /  1014.5hPa SO 2.9mph /  4.7km/h 5mph /  8km/h 77% 0in /  0.0mm
21:04 59.9 °F /  15.5 °C 52.7 °F /  11.5 °C 30in /  1014.5hPa OSO 2.5mph /  4.1km/h 5mph /  8km/h 77% 0in /  0.0mm
21:09 59.7 °F /  15.4 °C 52.5 °F /  11.4 °C 30in /  1014.6hPa OSO 2.4mph /  3.9km/h 5mph /  8km/h 77% 0in /  0.0mm
21:14 59.5 °F /  15.3 °C 52.3 °F /  11.3 °C 30in /  1014.6hPa OSO 2.1mph /  3.4km/h 3.1mph /  5km/h 77% 0in /  0.0mm
21:19 59.4 °F /  15.2 °C 52.3 °F /  11.3 °C 30in /  1014.6hPa OSO 2mph /  3.2km/h 4.7mph /  7.6km/h 77.7% 0in /  0.0mm
21:24 59.2 °F /  15.1 °C 52.5 °F /  11.4 °C 30in /  1014.6hPa SO 2.3mph /  3.7km/h 6.9mph /  11.1km/h 78.6% 0in /  0.0mm
21:29 59 °F /  15 °C 52.5 °F /  11.4 °C 30in /  1014.5hPa OSO 2.4mph /  3.9km/h 7mph /  11.3km/h 79% 0in /  0.0mm
21:34 58.8 °F /  14.9 °C 52.7 °F /  11.5 °C 30in /  1014.5hPa OSO 2.9mph /  4.7km/h 6mph /  9.7km/h 79.8% 0in /  0.0mm
21:39 58.8 °F /  14.9 °C 52.7 °F /  11.5 °C 30in /  1014.5hPa OSO 3.1mph /  5km/h 6.2mph /  10km/h 80% 0in /  0.0mm
21:44 58.6 °F /  14.8 °C 52.5 °F /  11.4 °C 30in /  1014.5hPa OSO 3.1mph /  5km/h 6mph /  9.7km/h 80% 0in /  0.0mm
21:49 58.6 °F /  14.8 °C 52.5 °F /  11.4 °C 30in /  1014.5hPa SSO 3.1mph /  5km/h 6.9mph /  11.1km/h 80.2% 0in /  0.0mm
21:54 58.6 °F /  14.8 °C 52.7 °F /  11.5 °C 30in /  1014.5hPa SSO 3.1mph /  5km/h 8.1mph /  13km/h 81% 0in /  0.0mm
21:59 58.6 °F /  14.8 °C 52.9 °F /  11.6 °C 30in /  1014.4hPa SSO 3.1mph /  5km/h 9.2mph /  14.8km/h 81% 0in /  0.0mm
22:04 58.6 °F /  14.8 °C 52.9 °F /  11.6 °C 30in /  1014.4hPa SO 4.3mph /  6.9km/h 9mph /  14.5km/h 81% 0in /  0.0mm
22:09 58.6 °F /  14.8 °C 52.9 °F /  11.6 °C 30in /  1014.4hPa OSO 4.7mph /  7.6km/h 8.1mph /  13km/h 81% 0in /  0.0mm
22:14 58.5 °F /  14.7 °C 52.9 °F /  11.6 °C 30in /  1014.4hPa OSO 4.2mph /  6.8km/h 8.1mph /  13km/h 81.5% 0in /  0.0mm
22:19 58.3 °F /  14.6 °C 52.7 °F /  11.5 °C 30in /  1014.4hPa OSO 4mph /  6.5km/h 9.7mph /  15.6km/h 82% 0in /  0.0mm
22:24 57.9 °F /  14.4 °C 52.7 °F /  11.5 °C 30in /  1014.4hPa SO 4.8mph /  7.8km/h 10.4mph /  16.7km/h 82.8% 0in /  0.0mm
22:29 57.7 °F /  14.3 °C 52.5 °F /  11.4 °C 30in /  1014.3hPa SO 5.2mph /  8.4km/h 10mph /  16.1km/h 83.1% 0in /  0.0mm
22:34 57.6 °F /  14.2 °C 52.9 °F /  11.6 °C 30in /  1014.3hPa SSO 5.2mph /  8.4km/h 8.1mph /  13km/h 84% 0in /  0.0mm
22:39 57.6 °F /  14.2 °C 52.7 °F /  11.5 °C 30in /  1014.3hPa Sur 5.2mph /  8.4km/h 8.5mph /  13.7km/h 84% 0in /  0.0mm
22:44 57.4 °F /  14.1 °C 52.5 °F /  11.4 °C 29.9in /  1014.1hPa SSE 5.2mph /  8.4km/h 9mph /  14.5km/h 84% 0in /  0.0mm
22:49 57 °F /  13.9 °C 52.3 °F /  11.3 °C 29.9in /  1014.1hPa SSE 5.2mph /  8.4km/h 10.4mph /  16.7km/h 84% 0in /  0.0mm
22:54 56.8 °F /  13.8 °C 52.2 °F /  11.2 °C 29.9in /  1014.1hPa SSE 6.1mph /  9.8km/h 10mph /  16.1km/h 84% 0in /  0.0mm
22:59 56.7 °F /  13.7 °C 52 °F /  11.1 °C 29.9in /  1013.9hPa Sur 6.4mph /  10.3km/h 9mph /  14.5km/h 84% 0in /  0.0mm
23:04 56.5 °F /  13.6 °C 52 °F /  11.1 °C 29.9in /  1013.9hPa SSE 5.7mph /  9.1km/h 8.5mph /  13.7km/h 85% 0in /  0.0mm
23:09 56.3 °F /  13.5 °C 51.8 °F /  11 °C 29.9in /  1013.9hPa Sur 5.4mph /  8.7km/h 9mph /  14.5km/h 85% 0in /  0.0mm
23:14 56.3 °F /  13.5 °C 52.2 °F /  11.2 °C 29.9in /  1013.7hPa SSO 4.9mph /  7.9km/h 7.4mph /  11.9km/h 85.7% 0in /  0.0mm
23:19 56.5 °F /  13.6 °C 52.3 °F /  11.3 °C 29.9in /  1013.7hPa SSO 4.7mph /  7.6km/h 8.5mph /  13.7km/h 86% 0in /  0.0mm
23:24 56.7 °F /  13.7 °C 52.5 °F /  11.4 °C 29.9in /  1013.7hPa SSO 4.7mph /  7.6km/h 9mph /  14.5km/h 86% 0in /  0.0mm
23:29 56.8 °F /  13.8 °C 52.5 °F /  11.4 °C 29.9in /  1013.7hPa SO 4.7mph /  7.6km/h 7mph /  11.3km/h 85.5% 0in /  0.0mm
23:34 56.8 °F /  13.8 °C 52.3 °F /  11.3 °C 29.9in /  1013.7hPa Sur 4.2mph /  6.8km/h 7mph /  11.3km/h 85% 0in /  0.0mm
23:39 56.8 °F /  13.8 °C 52.2 °F /  11.2 °C 29.9in /  1013.7hPa SO 4mph /  6.5km/h 5.2mph /  8.4km/h 84.1% 0in /  0.0mm
23:44 56.8 °F /  13.8 °C 52.2 °F /  11.2 °C 29.9in /  1013.4hPa ONO 2.9mph /  4.7km/h 5.2mph /  8.4km/h 84% 0in /  0.0mm
23:49 56.7 °F /  13.7 °C 51.8 °F /  11 °C 29.9in /  1013.4hPa ONO 2.4mph /  3.9km/h 5.8mph /  9.3km/h 84% 0in /  0.0mm
23:54 56.5 °F /  13.6 °C 51.8 °F /  11 °C 29.9in /  1013.4hPa Oeste 2.9mph /  4.7km/h 6mph /  9.7km/h 84.3% 0in /  0.0mm
23:59 56.1 °F /  13.4 °C 51.6 °F /  10.9 °C 29.9in /  1013.4hPa Oeste 3.1mph /  5km/h 6mph /  9.7km/h 85% 0in /  0.0mm
Murcia-Puente Tocinos, España
Compliments of Weather Underground - 2.75 mb

La estación de MeteoMurcia.com, publica sus datos en los siguientes proyectos:

Weather Underground PWS IMURCIAP2 Meteoclimatic www.awekas.at

W3Counter
Web Analytics